Time;durP1;ratioP1;P1;durP2;ratioP2;P2;SDS_P1;SDS_P2;PMS_P1;PMS_P2;Temp;Humidity;BMP_temperature;BMP_pressure;BME280_temperature;BME280_humidity;BME280_pressure;Samples;Min_cycle;Max_cycle;Signal;HPM_P1;HPM_P2
2023/10/14 00:01:25;;;;;;;2.33;0.73;;;;;;;12.84;100.00;99807.97;5020757;28;20037;-84
2023/10/14 00:03:51;;;;;;;0.70;0.63;;;;;;;12.85;100.00;99811.47;5025589;28;20028;-84
2023/10/14 00:06:17;;;;;;;0.88;0.60;;;;;;;12.82;100.00;99818.19;5011450;28;20026;-84
2023/10/14 00:08:55;;;;;;;1.92;0.95;;;;;;;12.81;100.00;99824.66;5023827;28;20030;-84
2023/10/14 00:11:21;;;;;;;1.25;0.68;;;;;;;12.74;100.00;99823.94;5026413;28;20057;-85
2023/10/14 00:13:50;;;;;;;3.28;0.90;;;;;;;12.77;100.00;99820.78;5024367;28;20108;-85
2023/10/14 00:19:04;;;;;;;0.80;0.70;;;;;;;12.70;100.00;99820.91;5013854;28;20095;-84
2023/10/14 00:21:33;;;;;;;1.63;1.17;;;;;;;12.61;100.00;99832.31;5031922;28;20022;-84
2023/10/14 00:24:01;;;;;;;0.70;0.70;;;;;;;12.61;100.00;99838.53;5033485;28;20136;-84
2023/10/14 00:26:27;;;;;;;1.65;0.80;;;;;;;12.59;100.00;99841.44;5019521;28;20099;-84
2023/10/14 00:28:55;;;;;;;1.58;0.95;;;;;;;12.54;100.00;99838.63;5040697;28;20037;-84
2023/10/14 00:31:22;;;;;;;2.13;0.82;;;;;;;12.46;100.00;99854.34;5028906;28;20036;-84
2023/10/14 00:33:48;;;;;;;1.38;0.75;;;;;;;12.39;100.00;99863.41;5034445;28;20470;-84
2023/10/14 00:36:14;;;;;;;1.08;0.70;;;;;;;12.36;100.00;99863.03;5021577;28;20031;-84
2023/10/14 00:38:43;;;;;;;1.70;0.90;;;;;;;12.36;100.00;99871.13;5032427;28;20021;-84
2023/10/14 00:41:09;;;;;;;3.72;0.80;;;;;;;12.32;100.00;99883.47;5029545;28;20060;-84
2023/10/14 00:43:36;;;;;;;2.03;0.70;;;;;;;12.30;100.00;99874.78;5027737;28;20388;-84
2023/10/14 00:46:09;;;;;;;1.77;0.90;;;;;;;12.26;100.00;99883.34;5027897;28;20046;-85
2023/10/14 00:48:40;;;;;;;0.98;0.80;;;;;;;12.24;100.00;99898.94;5014450;28;20061;-85
2023/10/14 00:51:10;;;;;;;2.20;1.00;;;;;;;12.20;100.00;99903.13;4971775;28;20034;-84
2023/10/14 00:53:39;;;;;;;3.67;0.93;;;;;;;12.20;100.00;99913.94;5013461;28;20056;-84
2023/10/14 00:56:11;;;;;;;1.60;0.80;;;;;;;12.22;100.00;99898.34;5029325;28;20056;-85
2023/10/14 00:58:41;;;;;;;1.77;1.00;;;;;;;12.20;100.00;99881.53;5013054;28;20041;-84
2023/10/14 01:01:07;;;;;;;2.40;1.10;;;;;;;12.21;100.00;99888.59;5018425;28;20494;-83
2023/10/14 01:03:33;;;;;;;3.08;1.20;;;;;;;12.17;100.00;99890.13;5016968;28;20022;-84
2023/10/14 01:06:07;;;;;;;1.42;0.85;;;;;;;12.16;100.00;99875.00;5023207;28;20026;-84
2023/10/14 01:08:37;;;;;;;1.13;0.90;;;;;;;12.15;100.00;99897.63;5038410;28;20037;-85
2023/10/14 01:11:03;;;;;;;2.10;1.10;;;;;;;12.16;100.00;99907.38;5042198;28;20063;-84
2023/10/14 01:13:28;;;;;;;1.52;1.00;;;;;;;12.15;100.00;99919.22;5038339;28;20054;-85
2023/10/14 01:16:08;;;;;;;2.50;1.10;;;;;;;12.15;100.00;99929.16;5027502;28;20048;-84
2023/10/14 01:18:39;;;;;;;1.75;1.20;;;;;;;12.18;100.00;99937.63;5023445;28;20045;-84
2023/10/14 01:21:08;;;;;;;1.33;1.08;;;;;;;12.20;100.00;99940.91;5013446;28;20054;-85
2023/10/14 01:23:36;;;;;;;1.63;1.20;;;;;;;12.21;100.00;99941.75;5013811;28;20030;-84
2023/10/14 01:26:04;;;;;;;1.23;1.13;;;;;;;12.23;100.00;99956.66;5025449;28;20091;-84
2023/10/14 01:28:30;;;;;;;1.30;1.20;;;;;;;12.30;100.00;99969.22;5033543;28;20033;-84
2023/10/14 01:33:58;;;;;;;2.40;1.13;;;;;;;12.24;100.00;99971.78;5003030;28;20048;-85
2023/10/14 01:36:27;;;;;;;1.10;1.00;;;;;;;12.30;100.00;99971.94;5010411;28;20478;-85
2023/10/14 01:38:59;;;;;;;2.13;1.20;;;;;;;12.31;100.00;99979.78;4996582;28;20038;-84
2023/10/14 01:41:30;;;;;;;2.45;1.30;;;;;;;12.34;100.00;99989.31;5017163;28;20050;-84
2023/10/14 01:43:58;;;;;;;2.55;1.00;;;;;;;12.35;100.00;100001.75;5020866;28;20038;-85
2023/10/14 01:46:27;;;;;;;2.25;1.05;;;;;;;12.32;100.00;99994.91;5013500;28;20128;-85
2023/10/14 01:48:52;;;;;;;1.60;1.20;;;;;;;12.32;100.00;100003.03;5029283;28;20619;-84
2023/10/14 01:51:19;;;;;;;2.17;1.05;;;;;;;12.38;100.00;100007.50;5010428;28;20466;-85
2023/10/14 01:53:44;;;;;;;1.75;0.90;;;;;;;12.35;100.00;100013.34;5014702;28;20496;-84
2023/10/14 01:56:10;;;;;;;3.00;1.20;;;;;;;12.33;100.00;100014.66;5030390;28;20033;-85
2023/10/14 01:58:36;;;;;;;2.92;0.82;;;;;;;12.32;100.00;100018.41;5033169;28;20017;-85
2023/10/14 02:03:35;;;;;;;2.88;0.88;;;;;;;12.31;100.00;100036.47;5032058;28;20095;-85
2023/10/14 02:06:04;;;;;;;1.52;0.90;;;;;;;12.24;100.00;100054.63;5030931;28;20045;-84
2023/10/14 02:08:29;;;;;;;2.00;1.00;;;;;;;12.26;100.00;100058.72;5008440;28;20026;-84
2023/10/14 02:10:55;;;;;;;5.78;1.23;;;;;;;12.23;100.00;100075.38;5032539;28;20079;-85
2023/10/14 02:13:21;;;;;;;2.10;0.98;;;;;;;12.13;100.00;100083.19;5027066;28;20033;-84
2023/10/14 02:15:47;;;;;;;3.22;1.00;;;;;;;12.04;100.00;100082.69;5012688;28;20037;-84
2023/10/14 02:18:21;;;;;;;3.30;1.02;;;;;;;12.00;100.00;100094.97;5011033;28;20049;-84
2023/10/14 02:20:56;;;;;;;3.50;1.23;;;;;;;12.06;100.00;100098.63;5013660;28;20482;-84
2023/10/14 02:23:24;;;;;;;3.80;1.10;;;;;;;11.98;100.00;100111.38;5029470;28;20030;-84
2023/10/14 02:25:55;;;;;;;2.70;1.00;;;;;;;11.92;100.00;100117.63;5018108;28;20024;-84
2023/10/14 02:28:24;;;;;;;3.30;1.10;;;;;;;11.92;100.00;100112.25;5031480;28;20034;-84
2023/10/14 02:30:52;;;;;;;2.83;1.27;;;;;;;11.92;100.00;100128.44;5037014;28;20037;-84
2023/10/14 02:33:19;;;;;;;5.10;1.27;;;;;;;11.88;100.00;100138.00;5032593;28;20108;-84
2023/10/14 02:35:44;;;;;;;2.63;1.10;;;;;;;11.82;100.00;100138.91;5030935;28;20029;-84
2023/10/14 02:38:10;;;;;;;5.15;1.42;;;;;;;11.79;100.00;100144.75;5034501;28;20045;-84
2023/10/14 02:40:37;;;;;;;4.65;1.20;;;;;;;11.78;100.00;100153.88;5032590;28;20026;-84
2023/10/14 02:43:04;;;;;;;4.05;1.20;;;;;;;11.81;100.00;100150.75;5030919;28;20037;-84
2023/10/14 02:45:40;;;;;;;2.05;1.10;;;;;;;11.78;100.00;100164.66;5015675;28;20052;-84
2023/10/14 02:48:06;;;;;;;3.63;1.20;;;;;;;11.78;100.00;100181.66;5024915;28;20466;-84
2023/10/14 02:50:32;;;;;;;4.40;1.10;;;;;;;11.74;100.00;100187.72;5010975;28;20033;-84
2023/10/14 02:53:06;;;;;;;4.20;1.20;;;;;;;11.71;100.00;100185.47;5028255;28;20026;-84
2023/10/14 02:55:50;;;;;;;3.58;1.20;;;;;;;11.70;100.00;100192.75;5034098;28;20033;-84
2023/10/14 02:58:20;;;;;;;5.38;1.30;;;;;;;11.70;100.00;100205.38;5034162;28;20238;-84
2023/10/14 03:00:58;;;;;;;5.05;1.40;;;;;;;11.71;100.00;100212.44;5025054;28;20141;-84
2023/10/14 03:03:24;;;;;;;4.85;1.20;;;;;;;11.67;100.00;100212.84;5032619;28;20029;-85
2023/10/14 03:05:52;;;;;;;3.67;1.40;;;;;;;11.61;100.00;100221.84;5032597;28;20025;-84
2023/10/14 03:08:18;;;;;;;4.35;1.30;;;;;;;11.53;100.00;100227.50;5024728;28;20037;-84
2023/10/14 03:10:54;;;;;;;3.70;1.20;;;;;;;11.53;100.00;100238.28;5023730;28;20025;-84
2023/10/14 03:13:20;;;;;;;5.78;1.90;;;;;;;11.45;100.00;100236.69;5014891;28;20041;-84
2023/10/14 03:15:52;;;;;;;4.88;1.48;;;;;;;11.32;100.00;100240.28;5016482;28;20462;-84
2023/10/14 03:18:18;;;;;;;2.90;1.30;;;;;;;11.24;100.00;100256.72;5034721;28;20034;-84
2023/10/14 03:20:58;;;;;;;8.27;2.08;;;;;;;11.16;100.00;100265.03;5024958;28;20034;-84
2023/10/14 03:23:24;;;;;;;6.70;1.60;;;;;;;11.04;100.00;100262.19;5013640;28;20093;-85
2023/10/14 03:25:50;;;;;;;5.43;1.55;;;;;;;10.92;100.00;100283.59;5026786;28;20171;-84
2023/10/14 03:28:20;;;;;;;4.35;1.35;;;;;;;10.82;100.00;100286.75;5013980;28;20459;-84
2023/10/14 03:30:55;;;;;;;7.60;1.58;;;;;;;10.82;100.00;100292.13;5033427;28;20330;-84
2023/10/14 03:33:20;;;;;;;8.55;2.13;;;;;;;10.70;100.00;100297.34;5028500;28;20033;-84
2023/10/14 03:36:05;;;;;;;8.55;1.55;;;;;;;10.62;100.00;100305.63;5029165;28;20022;-84
2023/10/14 03:41:03;;;;;;;5.15;1.20;;;;;;;10.43;100.00;100326.97;5021778;28;20402;-84
2023/10/14 03:46:35;;;;;;;6.90;1.52;;;;;;;10.24;100.00;100333.19;4934116;29;20067;-85
2023/10/14 03:49:06;;;;;;;8.88;1.60;;;;;;;10.13;100.00;100331.97;5006433;28;20138;-84
2023/10/14 03:51:32;;;;;;;4.95;1.25;;;;;;;10.10;100.00;100341.25;5019502;28;20489;-84
2023/10/14 03:54:09;;;;;;;7.57;1.77;;;;;;;10.04;100.00;100349.31;5031779;28;20045;-84
2023/10/14 03:56:44;;;;;;;7.10;1.60;;;;;;;9.97;100.00;100360.06;5023546;28;20032;-84
2023/10/14 03:59:12;;;;;;;7.43;1.70;;;;;;;9.88;100.00;100364.81;5013364;28;20024;-84
2023/10/14 04:04:17;;;;;;;8.88;2.03;;;;;;;9.75;100.00;100371.00;5030461;28;20048;-84
2023/10/14 04:17:37;;;;;;;7.25;1.27;;;;;;;9.49;100.00;100406.69;5030532;28;20095;-84
2023/10/14 04:22:38;;;;;;;8.73;1.90;;;;;;;9.47;100.00;100417.63;5031757;28;20123;-84
2023/10/14 04:25:19;;;;;;;7.70;1.50;;;;;;;9.46;100.00;100417.81;5021133;28;20026;-84
2023/10/14 04:30:32;;;;;;;3.85;1.30;;;;;;;9.37;100.00;100430.59;5012737;28;20026;-84
2023/10/14 04:35:38;;;;;;;4.80;1.40;;;;;;;9.39;100.00;100445.50;4994543;28;20041;-84
2023/10/14 04:38:16;;;;;;;5.22;1.30;;;;;;;9.42;100.00;100446.94;5009516;28;20025;-84
2023/10/14 04:40:53;;;;;;;6.00;1.33;;;;;;;9.45;100.00;100454.63;5019871;28;20069;-84
2023/10/14 04:45:51;;;;;;;8.18;1.85;;;;;;;9.66;100.00;100460.91;5032200;28;20049;-83
2023/10/14 04:48:19;;;;;;;10.80;2.25;;;;;;;9.75;100.00;100454.31;5027398;28;20021;-83
2023/10/14 04:50:44;;;;;;;6.57;1.60;;;;;;;9.81;100.00;100474.19;5033799;28;20105;-83
2023/10/14 04:53:13;;;;;;;6.22;1.83;;;;;;;9.84;100.00;100485.38;5021609;28;20036;-84
2023/10/14 04:55:43;;;;;;;8.63;1.48;;;;;;;9.79;100.00;100482.47;5015184;28;20022;-83
2023/10/14 05:00:42;;;;;;;7.13;1.45;;;;;;;9.64;100.00;100487.16;5016851;28;20049;-84
2023/10/14 05:03:13;;;;;;;10.75;1.85;;;;;;;9.52;100.00;100485.06;5027304;28;20025;-84
2023/10/14 05:05:41;;;;;;;7.82;1.42;;;;;;;9.39;100.00;100501.06;5038216;28;20087;-84
2023/10/14 05:08:15;;;;;;;7.88;1.50;;;;;;;9.33;100.00;100504.56;5024770;28;20022;-84
2023/10/14 05:10:44;;;;;;;6.90;2.08;;;;;;;9.30;100.00;100503.09;4997303;28;20046;-84
2023/10/14 05:13:09;;;;;;;7.05;1.50;;;;;;;9.24;100.00;100514.63;4996657;28;20026;-84
2023/10/14 05:15:41;;;;;;;4.93;1.45;;;;;;;9.21;100.00;100518.53;5006643;28;20068;-84
2023/10/14 05:18:14;;;;;;;6.93;1.58;;;;;;;9.23;100.00;100521.03;5033793;28;20032;-84
2023/10/14 05:23:24;;;;;;;7.55;1.60;;;;;;;9.11;100.00;100542.22;5016678;28;20433;-83
2023/10/14 05:25:56;;;;;;;9.93;1.80;;;;;;;9.11;100.00;100539.53;5015991;28;20030;-84
2023/10/14 05:28:26;;;;;;;7.20;1.40;;;;;;;9.02;100.00;100557.66;5033302;28;20427;-84
2023/10/14 05:30:55;;;;;;;4.72;1.35;;;;;;;8.91;100.00;100555.50;5022875;28;20030;-84
2023/10/14 05:33:21;;;;;;;12.65;2.42;;;;;;;8.86;100.00;100574.03;5025972;28;20033;-83
2023/10/14 05:35:48;;;;;;;7.25;1.65;;;;;;;8.88;100.00;100572.81;5048076;28;20028;-84
2023/10/14 05:38:14;;;;;;;6.55;1.60;;;;;;;8.86;100.00;100579.41;5031597;28;20034;-84
2023/10/14 05:40:40;;;;;;;6.13;1.63;;;;;;;8.81;100.00;100579.97;5020471;28;20049;-86
2023/10/14 05:43:06;;;;;;;7.70;1.80;;;;;;;8.75;100.00;100584.25;5016807;28;20113;-83
2023/10/14 05:45:40;;;;;;;8.90;1.85;;;;;;;8.67;100.00;100592.44;5362182;22;20110;-83
2023/10/14 05:48:09;;;;;;;7.07;1.60;;;;;;;8.62;100.00;100594.84;5055389;28;20036;-83
2023/10/14 05:50:35;;;;;;;7.50;1.83;;;;;;;8.61;100.00;100594.03;5060757;28;20020;-82
2023/10/14 05:53:01;;;;;;;6.82;1.50;;;;;;;8.64;100.00;100604.38;5055520;28;20021;-82
2023/10/14 05:55:50;;;;;;;7.07;1.50;;;;;;;8.60;100.00;100603.09;5052558;28;20576;-82
2023/10/14 05:58:14;;;;;;;7.50;1.35;;;;;;;8.56;100.00;100615.22;5046404;28;20068;-82
2023/10/14 06:00:41;;;;;;;10.45;2.10;;;;;;;8.55;100.00;100620.78;5047572;22;20589;-82
2023/10/14 06:03:12;;;;;;;12.18;1.92;;;;;;;8.53;100.00;100620.97;5033177;28;20039;-82
2023/10/14 06:05:39;;;;;;;7.22;1.50;;;;;;;8.57;100.00;100627.63;5015013;28;20061;-83
2023/10/14 06:08:36;;;;;;;;;;;;;;;;;;;;;
2023/10/14 06:13:52;;;;;;;5.78;1.40;;;;;;;8.65;100.00;100654.31;6016538;23;20016;-87
2023/10/14 06:16:17;;;;;;;5.38;1.70;;;;;;;8.74;100.00;100656.91;5042532;28;20052;-77
2023/10/14 06:59:20;;;;;;;11.35;2.00;;;;;;;13.09;80.59;100749.13;5170148;23;20070;-83
2023/10/14 07:01:45;;;;;;;10.95;2.00;;;;;;;13.71;80.76;100754.78;4954738;29;20041;-84
2023/10/14 07:04:24;;;;;;;10.90;1.98;;;;;;;14.26;76.22;100753.25;4954571;29;20023;-82
2023/10/14 07:06:59;;;;;;;8.30;1.70;;;;;;;15.01;72.99;100756.78;4952580;29;20436;-82
2023/10/14 07:09:27;;;;;;;8.27;2.03;;;;;;;15.08;73.25;100757.53;4952871;28;20098;-85
2023/10/14 07:11:56;;;;;;;6.65;1.77;;;;;;;15.22;70.50;100774.44;4952042;29;20110;-83
2023/10/14 07:14:23;;;;;;;7.25;1.73;;;;;;;15.45;69.60;100781.81;4950547;29;20460;-83
2023/10/14 07:16:50;;;;;;;7.03;1.77;;;;;;;15.12;70.72;100783.09;4953507;29;20023;-81
2023/10/14 07:19:17;;;;;;;11.82;1.92;;;;;;;15.61;68.69;100790.38;4942190;29;20130;-80
2023/10/14 07:21:55;;;;;;;4.15;1.63;;;;;;;16.11;67.57;100797.31;4950479;28;20046;-80
2023/10/14 07:24:20;;;;;;;11.55;2.35;;;;;;;16.78;63.52;100792.53;4948049;28;20043;-81
2023/10/14 07:27:42;;;;;;;9.98;2.05;;;;;;;16.42;65.34;100802.63;4950662;29;20039;-86
2023/10/14 07:30:48;;;;;;;9.70;1.98;;;;;;;16.40;64.42;100811.03;4950068;29;20337;-87
2023/10/14 07:33:38;;;;;;;7.07;1.95;;;;;;;16.72;63.22;100807.06;4950655;29;20649;-86
2023/10/14 07:36:21;;;;;;;9.73;2.35;;;;;;;16.57;64.50;100821.97;4951126;29;20027;-84
2023/10/14 07:42:14;;;;;;;7.85;1.98;;;;;;;16.02;64.73;100815.03;4947971;29;20134;-89
2023/10/14 07:44:54;;;;;;;8.15;2.28;;;;;;;16.22;65.19;100822.81;4944292;29;20083;-89
2023/10/14 07:47:21;;;;;;;9.35;2.20;;;;;;;16.50;63.94;100829.44;4934968;29;20086;-89
2023/10/14 07:49:46;;;;;;;8.55;2.20;;;;;;;17.06;61.57;100840.72;4933831;29;20031;-89
2023/10/14 07:52:49;;;;;;;7.78;1.88;;;;;;;16.56;62.64;100841.25;4935150;29;20341;-90
2023/10/14 08:02:34;;;;;;;8.98;2.30;;;;;;;18.15;57.09;100853.63;4935322;29;20531;-88
2023/10/14 08:08:47;;;;;;;11.73;2.20;;;;;;;17.79;58.72;100863.88;4939810;29;20415;-88
2023/10/14 08:11:59;;;;;;;6.60;2.30;;;;;;;16.74;61.41;100876.47;5496920;23;20520;-89
2023/10/14 08:23:20;;;;;;;10.00;2.25;;;;;;;18.01;57.84;100885.78;4936445;29;20126;-88
2023/10/14 08:35:56;;;;;;;9.02;2.22;;;;;;;17.90;57.51;100901.09;4956557;29;20066;-89
2023/10/14 08:38:22;;;;;;;10.23;2.40;;;;;;;17.46;57.57;100890.75;4934977;29;20134;-89
2023/10/14 08:44:49;;;;;;;8.88;2.00;;;;;;;17.58;59.28;100923.38;4898468;29;20081;-89
2023/10/14 08:47:22;;;;;;;5.95;2.25;;;;;;;19.22;55.75;100918.97;4896060;29;20036;-89
2023/10/14 08:49:48;;;;;;;11.55;2.50;;;;;;;18.44;54.23;100919.72;4866963;29;20040;-90
2023/10/14 08:52:21;;;;;;;6.40;2.08;;;;;;;18.27;55.07;100913.44;4870354;29;20077;-88
2023/10/14 08:54:51;;;;;;;9.73;2.10;;;;;;;17.63;55.60;100926.22;4844757;29;20056;-88
2023/10/14 08:57:22;;;;;;;6.95;2.40;;;;;;;17.15;58.57;100925.50;4874260;29;20037;-87
2023/10/14 09:00:20;;;;;;;11.15;2.28;;;;;;;16.54;59.32;100920.28;4880745;29;20063;-89
2023/10/14 09:15:28;;;;;;;8.18;2.03;;;;;;;15.99;61.46;100934.94;4953317;29;20419;-89
2023/10/14 09:18:42;;;;;;;10.77;2.30;;;;;;;15.43;63.36;100933.16;4934730;29;20043;-89
2023/10/14 09:21:13;;;;;;;10.50;2.22;;;;;;;15.12;67.27;100934.13;4930683;29;20035;-89
2023/10/14 09:24:20;;;;;;;7.20;2.28;;;;;;;14.57;66.64;100938.38;4916034;29;20469;-90
2023/10/14 09:26:52;;;;;;;12.00;2.20;;;;;;;14.83;66.02;100944.63;4852886;29;20174;-89
2023/10/14 09:29:19;;;;;;;11.23;2.53;;;;;;;14.13;68.97;100948.28;4870774;29;20043;-89
2023/10/14 09:31:47;;;;;;;12.75;2.42;;;;;;;14.07;68.03;100948.13;4884079;29;20040;-89
2023/10/14 09:34:23;;;;;;;11.75;2.70;;;;;;;14.52;67.44;100938.22;4885802;29;20838;-89
2023/10/14 09:36:52;;;;;;;9.70;2.53;;;;;;;14.16;67.45;100950.56;4884743;29;20537;-89
2023/10/14 09:42:39;;;;;;;13.45;2.40;;;;;;;13.88;71.35;100954.47;4879028;29;20598;-89
2023/10/14 09:45:19;;;;;;;12.40;2.40;;;;;;;14.09;72.06;100956.88;4876687;29;20041;-88
2023/10/14 09:47:45;;;;;;;8.05;2.25;;;;;;;14.44;70.44;100952.03;4893347;29;20045;-89
2023/10/14 09:51:00;;;;;;;14.27;2.58;;;;;;;14.00;70.23;100960.84;4892245;29;20067;-88
2023/10/14 09:53:55;;;;;;;14.40;2.30;;;;;;;14.01;70.83;100954.41;4956644;29;20102;-89
2023/10/14 09:56:20;;;;;;;12.77;2.30;;;;;;;14.10;69.41;100963.94;4956756;29;20118;-89
2023/10/14 09:58:46;;;;;;;11.02;2.42;;;;;;;14.53;68.56;100962.38;4954176;23;20035;-88
2023/10/14 10:01:16;;;;;;;10.60;2.75;;;;;;;14.10;68.73;100977.47;4946418;29;20063;-88
2023/10/14 10:04:17;;;;;;;14.70;2.17;;;;;;;14.17;67.58;100963.88;4897681;29;20118;-88
2023/10/14 10:07:20;;;;;;;10.70;2.40;;;;;;;13.89;67.88;100966.97;4929632;29;20038;-88
2023/10/14 10:10:38;;;;;;;12.60;1.98;;;;;;;13.98;67.40;100965.66;4953375;29;20026;-90
2023/10/14 10:13:23;;;;;;;11.32;2.20;;;;;;;14.17;66.64;100990.13;4940013;29;20040;-88
2023/10/14 10:19:21;;;;;;;7.20;1.83;;;;;;;14.13;65.59;100978.91;4916188;29;20032;-88
2023/10/14 10:22:18;;;;;;;11.23;1.88;;;;;;;14.25;64.84;100992.59;4921267;29;20027;-89
2023/10/14 10:24:56;;;;;;;11.02;1.80;;;;;;;14.19;65.10;100978.03;4940160;29;20071;-90
2023/10/14 10:27:21;;;;;;;12.77;2.10;;;;;;;14.13;65.87;100991.59;4925720;29;20055;-89
2023/10/14 10:30:19;;;;;;;9.88;2.20;;;;;;;14.21;65.13;100988.66;4941985;29;20437;-90
2023/10/14 10:33:16;;;;;;;13.52;2.08;;;;;;;13.95;65.01;100993.16;4914847;29;20051;-90
2023/10/14 10:35:57;;;;;;;;;;;;;;;13.80;66.69;100991.56;4931082;29;20036;-90
2023/10/14 10:38:23;;;;;;;7.57;1.98;;;;;;;13.91;65.00;100990.06;4941796;29;19922;-89
2023/10/14 10:41:39;;;;;;;10.32;1.73;;;;;;;13.98;65.73;100990.00;4936211;29;20031;-90
2023/10/14 10:44:19;;;;;;;11.90;2.00;;;;;;;13.99;65.51;100997.09;4878825;29;20053;-89
2023/10/14 10:46:53;;;;;;;11.40;2.00;;;;;;;14.24;66.17;100994.44;4877229;29;20039;-90
2023/10/14 10:50:15;;;;;;;6.97;2.00;;;;;;;14.35;64.69;100998.34;4879177;29;20558;-89
2023/10/14 10:53:18;;;;;;;11.07;2.17;;;;;;;13.94;64.27;100997.75;4878025;29;20090;-89
2023/10/14 10:55:48;;;;;;;11.13;2.05;;;;;;;14.05;62.45;101000.81;4875834;29;20037;-89
2023/10/14 10:58:14;;;;;;;10.65;2.40;;;;;;;13.90;65.08;101003.81;4875704;29;20496;-90
2023/10/14 11:00:52;;;;;;;10.52;1.92;;;;;;;13.95;65.14;101020.22;4875337;29;20051;-90
2023/10/14 11:03:18;;;;;;;10.93;2.15;;;;;;;14.50;63.39;101021.56;4860248;29;20121;-90
2023/10/14 11:06:13;;;;;;;8.90;1.88;;;;;;;14.84;62.31;101020.31;4875027;29;20068;-90
2023/10/14 11:08:39;;;;;;;9.30;2.10;;;;;;;15.54;59.17;101007.50;4873096;29;20453;-89
2023/10/14 11:11:07;;;;;;;8.80;2.08;;;;;;;15.95;57.38;101012.50;4875710;29;20037;-90
2023/10/14 11:13:34;;;;;;;5.65;1.85;;;;;;;15.50;56.33;101005.47;4908139;29;20413;-90
2023/10/14 11:16:27;;;;;;;10.82;1.95;;;;;;;14.90;59.29;101007.75;4935120;29;20107;-89
2023/10/14 11:18:52;;;;;;;8.35;2.20;;;;;;;15.37;59.17;101020.84;4934279;29;20020;-89
2023/10/14 11:21:19;;;;;;;6.97;1.60;;;;;;;14.95;57.18;101013.34;4936621;29;20039;-89
2023/10/14 11:23:45;;;;;;;5.95;1.50;;;;;;;14.76;55.48;101019.75;4922027;29;20422;-89
2023/10/14 11:26:20;;;;;;;7.22;1.67;;;;;;;14.39;54.20;101017.69;4936043;29;20071;-90
2023/10/14 11:28:45;;;;;;;6.28;1.20;;;;;;;14.39;54.89;101023.09;4934847;29;20232;-90
2023/10/14 11:31:11;;;;;;;3.90;1.20;;;;;;;13.98;54.48;101029.81;4903074;29;20259;-89
2023/10/14 11:33:36;;;;;;;5.13;1.40;;;;;;;14.49;55.67;101025.31;4938133;29;20031;-90
2023/10/14 11:36:18;;;;;;;5.38;1.52;;;;;;;14.74;54.82;101033.50;4938436;29;20456;-88
2023/10/14 11:38:44;;;;;;;4.32;1.23;;;;;;;15.31;54.59;101044.28;4934339;29;20042;-89
2023/10/14 11:41:10;;;;;;;7.38;1.50;;;;;;;15.99;51.05;101032.69;4934291;29;20110;-89
2023/10/14 11:43:35;;;;;;;4.53;1.30;;;;;;;17.05;49.31;101044.94;4921641;29;20032;-88
2023/10/14 11:46:19;;;;;;;3.72;1.38;;;;;;;18.73;45.61;101044.25;4904201;29;20103;-89
2023/10/14 11:48:54;;;;;;;3.78;1.27;;;;;;;18.16;46.23;101046.81;4902823;29;20028;-88
2023/10/14 11:51:19;;;;;;;4.65;1.38;;;;;;;18.41;45.21;101050.25;4940792;29;20027;-89
2023/10/14 11:53:58;;;;;;;5.05;1.50;;;;;;;17.92;45.15;101039.75;4936154;29;20031;-88
2023/10/14 11:56:36;;;;;;;4.25;1.65;;;;;;;17.98;46.44;101044.25;4933521;29;20460;-89
2023/10/14 11:59:18;;;;;;;5.40;1.60;;;;;;;19.05;45.74;101041.00;4926547;29;20107;-88
2023/10/14 12:01:57;;;;;;;;;;;;;;;;;;;;;
2023/10/14 12:04:33;;;;;;;6.13;1.70;;;;;;;19.20;44.83;101029.47;4897577;29;20055;-89
2023/10/14 12:09:36;;;;;;;7.85;1.50;;;;;;;18.64;43.08;101024.75;4962241;23;20064;-90
2023/10/14 12:12:14;;;;;;;6.72;1.70;;;;;;;17.93;44.31;101022.31;4912838;29;20069;-85
2023/10/14 12:14:54;;;;;;;4.50;1.40;;;;;;;18.33;42.95;101038.69;4921552;29;20039;-87
2023/10/14 12:17:45;;;;;;;6.65;1.63;;;;;;;18.67;44.16;101037.06;4916636;29;20059;-88
2023/10/14 12:24:22;;;;;;;4.15;1.80;;;;;;;18.32;44.64;101053.38;4900681;29;20112;-89
2023/10/14 12:26:57;;;;;;;6.72;1.70;;;;;;;18.35;43.64;101062.13;4849257;29;20034;-90
2023/10/14 12:29:24;;;;;;;6.53;1.70;;;;;;;18.37;42.54;101049.06;4905597;29;20032;-89
2023/10/14 12:31:50;;;;;;;6.35;1.50;;;;;;;17.90;44.57;101064.50;4916328;29;20186;-89
2023/10/14 12:34:22;;;;;;;6.68;1.77;;;;;;;18.63;43.91;101075.72;4917296;29;20044;-88
2023/10/14 12:36:47;;;;;;;7.88;1.95;;;;;;;18.77;44.10;101076.25;4914778;29;20040;-89
2023/10/14 12:45:41;;;;;;;7.20;1.60;;;;;;;19.21;42.84;101080.25;4898845;29;20460;-90
2023/10/14 12:48:24;;;;;;;6.70;1.70;;;;;;;18.98;42.56;101089.44;4919812;29;20023;-90
2023/10/14 12:51:20;;;;;;;7.75;1.85;;;;;;;19.08;42.30;101092.31;4917375;29;20068;-90
2023/10/14 12:57:11;;;;;;;6.18;1.55;;;;;;;19.47;40.88;101095.09;5062071;23;20063;-89
2023/10/14 12:59:43;;;;;;;5.95;1.40;;;;;;;18.53;41.84;101102.81;4955952;29;20485;-89
2023/10/14 13:02:56;;;;;;;3.47;0.98;;;;;;;17.42;46.51;101137.22;4958677;28;20216;-89
2023/10/14 13:05:23;;;;;;;4.07;1.08;;;;;;;16.45;53.01;101110.00;5013661;23;20422;-89
2023/10/14 13:08:19;;;;;;;3.25;0.93;;;;;;;15.97;52.67;101111.69;4968260;28;20034;-89
2023/10/14 13:11:31;;;;;;;3.13;0.93;;;;;;;15.61;52.69;101116.81;4976415;28;20256;-89
2023/10/14 13:16:39;;;;;;;5.90;1.40;;;;;;;14.27;54.78;101120.47;5167835;23;20532;-88
2023/10/14 13:19:45;;;;;;;5.55;1.48;;;;;;;13.52;56.62;101119.00;4919623;29;20046;-88
2023/10/14 13:22:23;;;;;;;5.40;1.15;;;;;;;13.25;60.00;101128.97;4938142;29;20035;-88
2023/10/14 13:24:49;;;;;;;6.32;1.73;;;;;;;13.03;59.21;101126.47;4939255;29;20028;-88
2023/10/14 13:27:16;;;;;;;6.68;1.50;;;;;;;13.18;61.55;101124.41;4939463;29;20068;-87
2023/10/14 13:30:33;;;;;;;5.00;1.40;;;;;;;13.30;59.96;101130.03;4916516;29;20039;-88
2023/10/14 13:36:17;;;;;;;7.93;1.83;;;;;;;14.21;59.95;101143.78;5071927;23;20295;-88
2023/10/14 13:38:54;;;;;;;6.50;1.52;;;;;;;14.36;57.25;101138.13;4958357;29;20042;-89
2023/10/14 13:45:21;;;;;;;4.93;1.10;;;;;;;15.73;54.70;101157.63;5149929;23;20066;-88
2023/10/14 13:47:48;;;;;;;6.45;1.75;;;;;;;16.32;52.45;101162.66;4909458;29;20044;-88
2023/10/14 13:50:41;;;;;;;2.95;0.98;;;;;;;15.84;49.58;101153.34;4921099;29;20018;-88
2023/10/14 13:56:42;;;;;;;5.55;1.23;;;;;;;13.56;55.87;101178.94;4890332;29;20043;-87
2023/10/14 13:59:07;;;;;;;4.30;1.02;;;;;;;12.50;60.84;101171.25;4919345;29;20095;-89
2023/10/14 14:01:32;;;;;;;1.33;0.90;;;;;;;12.26;65.62;101168.00;4918943;29;20040;-88
2023/10/14 14:04:17;;;;;;;2.65;1.08;;;;;;;12.08;67.30;101176.66;4938760;29;20465;-89
2023/10/14 14:06:54;;;;;;;4.32;1.30;;;;;;;11.89;68.89;101188.94;4940016;29;20028;-88
2023/10/14 14:09:21;;;;;;;7.90;1.55;;;;;;;11.77;71.68;101187.84;4939390;29;20043;-89
2023/10/14 14:11:47;;;;;;;5.78;1.60;;;;;;;11.53;71.98;101171.06;4944489;29;20030;-89
2023/10/14 14:17:34;;;;;;;6.85;1.30;;;;;;;11.46;72.97;101194.44;4956397;28;20107;-89
2023/10/14 14:20:16;;;;;;;6.35;1.58;;;;;;;11.50;72.66;101187.63;4944479;29;20027;-89
2023/10/14 14:22:57;;;;;;;5.15;1.58;;;;;;;11.55;72.60;101195.97;4942350;29;20110;-88
2023/10/14 14:25:26;;;;;;;5.55;1.20;;;;;;;11.40;73.00;101195.22;4940005;29;20031;-89
2023/10/14 14:27:55;;;;;;;4.57;1.20;;;;;;;11.46;73.33;101206.06;4943275;29;20031;-88
2023/10/14 14:30:21;;;;;;;7.68;1.38;;;;;;;11.49;72.16;101196.72;4938864;29;20050;-89
2023/10/14 14:32:47;;;;;;;5.15;1.38;;;;;;;11.40;75.46;101201.41;4921435;29;20472;-88
2023/10/14 14:35:40;;;;;;;7.18;1.10;;;;;;;11.64;71.25;101196.66;4937419;29;20469;-87
2023/10/14 14:44:34;;;;;;;4.40;1.40;;;;;;;11.83;72.86;101203.22;4918918;29;20421;-88
2023/10/14 14:55:20;;;;;;;3.55;1.10;;;;;;;11.95;72.59;101215.16;4923642;29;20523;-89
2023/10/14 14:58:14;;;;;;;5.00;1.48;;;;;;;11.64;70.79;101213.69;4936801;29;20176;-88
2023/10/14 15:00:56;;;;;;;8.18;2.00;;;;;;;11.40;73.04;101208.69;4920856;29;20405;-87
2023/10/14 15:03:22;;;;;;;8.05;1.60;;;;;;;11.36;73.32;101211.75;4919065;29;20059;-88
2023/10/14 15:05:51;;;;;;;7.82;1.63;;;;;;;11.26;73.85;101222.06;5104452;23;20052;-87